createdAt,value
2022-08-14T00:00:53.325Z,13.32
2022-08-14T00:05:59.986Z,15.20
2022-08-14T00:11:02.093Z,14.02
2022-08-14T00:16:08.328Z,13.35
2022-08-14T00:21:11.157Z,12.85
2022-08-14T00:26:21.671Z,13.75
2022-08-14T00:31:35.122Z,13.43
2022-08-14T00:36:49.186Z,14.48
2022-08-14T00:41:51.576Z,14.38
2022-08-14T00:46:54.149Z,13.38
2022-08-14T00:52:00.592Z,14.00
2022-08-14T00:57:02.801Z,14.80
2022-08-14T01:02:05.820Z,14.95
2022-08-14T01:07:11.582Z,14.77
2022-08-14T01:12:26.388Z,13.60
2022-08-14T01:17:52.207Z,14.02
2022-08-14T01:22:54.955Z,13.90
2022-08-14T01:27:58.041Z,14.50
2022-08-14T01:32:59.833Z,14.25
2022-08-14T01:38:01.624Z,14.23
2022-08-14T01:43:03.540Z,12.80
2022-08-14T01:48:05.305Z,13.13
2022-08-14T01:53:08.190Z,14.82
2022-08-14T01:58:19.781Z,13.43
2022-08-14T02:03:30.845Z,13.43
2022-08-14T02:08:34.669Z,13.85
2022-08-14T02:13:37.948Z,13.88
2022-08-14T02:18:39.961Z,13.80
2022-08-14T02:23:42.986Z,14.88
2022-08-14T02:28:57.423Z,14.98
2022-08-14T02:34:20.323Z,15.43
2022-08-14T02:39:24.384Z,14.82
2022-08-14T02:44:30.053Z,15.05
2022-08-14T02:49:33.965Z,15.77
2022-08-14T02:54:36.490Z,14.48
2022-08-14T02:59:39.305Z,15.73
2022-08-14T03:04:45.044Z,14.25
2022-08-14T03:10:25.588Z,14.90
2022-08-14T03:15:16.578Z,15.20
2022-08-14T03:20:22.556Z,14.98
2022-08-14T03:25:24.470Z,14.77
2022-08-14T03:30:37.213Z,15.18
2022-08-14T03:36:05.709Z,15.82
2022-08-14T03:41:04.045Z,15.77
2022-08-14T03:46:10.197Z,15.48
2022-08-14T03:51:28.816Z,14.75
2022-08-14T03:56:30.961Z,15.40
2022-08-14T04:01:39.233Z,14.52
2022-08-14T04:06:48.578Z,15.30
2022-08-14T04:11:50.780Z,15.45
2022-08-14T04:16:52.551Z,14.23
2022-08-14T04:22:02.142Z,14.85
2022-08-14T04:27:09.731Z,13.90
2022-08-14T04:32:57.639Z,14.40
2022-08-14T04:37:53.647Z,14.88
2022-08-14T04:43:17.424Z,14.63
2022-08-14T04:48:38.934Z,15.30
2022-08-14T04:53:50.232Z,15.35
2022-08-14T04:59:02.030Z,14.82
2022-08-14T05:04:04.611Z,14.50
2022-08-14T05:09:13.936Z,14.60
2022-08-14T05:14:45.334Z,14.35
2022-08-14T05:19:44.414Z,13.73
2022-08-14T05:25:00.703Z,14.27
2022-08-14T05:30:06.022Z,13.45
2022-08-14T05:35:11.520Z,13.07
2022-08-14T05:40:13.318Z,13.57
2022-08-14T05:45:17.163Z,14.68
2022-08-14T05:50:19.890Z,14.93
2022-08-14T05:55:23.295Z,14.38
2022-08-14T06:00:38.558Z,14.60
2022-08-14T06:05:42.127Z,14.27
2022-08-14T06:10:44.339Z,13.40
2022-08-14T06:15:47.578Z,14.02
2022-08-14T06:20:51.042Z,14.73
2022-08-14T06:25:53.459Z,13.65
2022-08-14T06:30:56.041Z,14.15
2022-08-14T06:35:58.275Z,13.32
2022-08-14T06:41:00.437Z,12.98
2022-08-14T06:46:03.212Z,13.65
2022-08-14T06:51:05.027Z,12.77
2022-08-14T06:56:07.504Z,12.13
2022-08-14T07:01:28.157Z,12.43
2022-08-14T07:06:45.522Z,12.10
2022-08-14T07:11:47.922Z,12.02
2022-08-14T07:16:49.623Z,11.65
2022-08-14T07:21:51.459Z,11.95
2022-08-14T07:26:53.665Z,12.13
2022-08-14T07:31:55.920Z,10.63
2022-08-14T07:37:00.660Z,10.93
2022-08-14T07:42:02.680Z,11.07
2022-08-14T07:47:05.299Z,11.18
2022-08-14T07:52:08.202Z,11.05
2022-08-14T07:57:12.652Z,10.55
2022-08-14T08:02:27.754Z,10.35
2022-08-14T08:07:31.411Z,10.73
2022-08-14T08:12:34.323Z,10.25
2022-08-14T08:17:39.095Z,10.60
2022-08-14T08:22:48.231Z,9.90
2022-08-14T08:28:31.402Z,10.10
2022-08-14T08:33:37.692Z,9.57
2022-08-14T08:39:18.226Z,9.55
2022-08-14T08:44:05.766Z,9.63
2022-08-14T08:49:19.310Z,9.65
2022-08-14T08:54:26.398Z,9.13
2022-08-14T08:59:34.373Z,9.32
2022-08-14T09:08:58.424Z,10.43
2022-08-14T09:14:01.713Z,10.02
2022-08-14T09:19:04.059Z,10.00
2022-08-14T09:24:27.985Z,10.32
2022-08-14T09:29:31.786Z,10.32
2022-08-14T09:35:10.985Z,9.30
2022-08-14T09:40:42.019Z,9.68
2022-08-14T09:45:53.608Z,9.20
2022-08-14T09:50:57.299Z,9.23
2022-08-14T09:56:00.187Z,8.98
2022-08-14T10:01:18.932Z,8.65
2022-08-14T10:06:31.295Z,8.68
2022-08-14T10:11:38.193Z,8.38
2022-08-14T10:16:48.094Z,8.07
2022-08-14T10:23:12.191Z,8.25
2022-08-14T10:27:38.073Z,8.25
2022-08-14T10:32:51.816Z,8.05
2022-08-14T10:37:54.003Z,7.80
2022-08-14T10:42:56.684Z,7.57
2022-08-14T10:48:09.643Z,7.05
2022-08-14T10:53:33.066Z,8.27
2022-08-14T10:58:35.021Z,6.97
2022-08-14T11:03:55.793Z,7.57
2022-08-14T11:08:58.765Z,10.50
2022-08-14T11:14:00.473Z,7.90
2022-08-14T11:19:03.683Z,6.90
2022-08-14T11:24:50.501Z,7.50
2022-08-14T11:29:30.939Z,7.30
2022-08-14T11:34:39.916Z,6.63
2022-08-14T11:39:42.111Z,6.72
2022-08-14T11:44:47.395Z,7.30
2022-08-14T11:49:51.973Z,7.28
2022-08-14T11:54:58.416Z,7.10
2022-08-14T12:00:03.357Z,7.35
2022-08-14T12:05:09.341Z,6.60
2022-08-14T12:10:27.145Z,6.97
2022-08-14T12:15:36.099Z,6.88
2022-08-14T12:20:45.742Z,6.65
2022-08-14T12:26:39.792Z,6.55
2022-08-14T12:31:27.269Z,6.72
2022-08-14T12:36:33.051Z,7.25
2022-08-14T12:41:37.170Z,6.82
2022-08-14T12:46:46.906Z,6.88
2022-08-14T12:52:00.192Z,6.97
2022-08-14T12:57:17.026Z,6.32
2022-08-14T13:02:26.028Z,6.60
2022-08-14T13:07:32.698Z,6.68
2022-08-14T13:12:51.254Z,6.63
2022-08-14T13:18:04.312Z,5.90
2022-08-14T13:23:09.393Z,6.05
2022-08-14T13:28:13.489Z,6.70
2022-08-14T13:33:36.604Z,5.95
2022-08-14T13:38:42.714Z,6.60
2022-08-14T13:43:49.262Z,6.90
2022-08-14T13:49:02.422Z,6.95
2022-08-14T13:54:10.593Z,6.65
2022-08-14T13:59:20.285Z,5.97
2022-08-14T14:04:31.118Z,6.43
2022-08-14T14:09:50.826Z,6.53
2022-08-14T14:14:54.451Z,6.63
2022-08-14T14:19:57.877Z,7.25
2022-08-14T14:24:59.719Z,6.78
2022-08-14T14:30:03.329Z,6.55
2022-08-14T14:35:06.832Z,6.22
2022-08-14T14:40:54.150Z,6.18
2022-08-14T14:45:38.213Z,5.90
2022-08-14T14:50:39.990Z,6.53
2022-08-14T14:56:51.212Z,6.22
2022-08-14T15:01:10.356Z,6.10
2022-08-14T15:06:12.827Z,6.25
2022-08-14T15:11:20.012Z,6.25
2022-08-14T15:16:22.538Z,6.25
2022-08-14T15:21:26.641Z,6.72
2022-08-14T15:26:31.682Z,6.07
2022-08-14T15:31:37.195Z,6.50
2022-08-14T15:36:40.954Z,7.05
2022-08-14T15:41:45.383Z,6.57
2022-08-14T15:46:47.154Z,7.43
2022-08-14T15:51:50.989Z,7.28
2022-08-14T15:57:01.215Z,6.80
2022-08-14T16:02:04.859Z,6.80
2022-08-14T16:07:11.530Z,7.70
2022-08-14T16:12:14.827Z,7.05
2022-08-14T16:17:17.291Z,7.40
2022-08-14T16:22:58.122Z,7.10
2022-08-14T16:27:43.231Z,7.45
2022-08-14T16:32:55.052Z,7.25
2022-08-14T16:37:58.438Z,7.13
2022-08-14T16:43:13.026Z,6.90
2022-08-14T16:48:57.368Z,7.18
2022-08-14T16:53:37.325Z,6.70
2022-08-14T16:58:40.478Z,6.97
2022-08-14T17:04:08.467Z,6.68
2022-08-14T17:09:48.806Z,6.70
2022-08-14T17:15:01.680Z,6.85
2022-08-14T17:20:39.581Z,6.80
2022-08-14T17:25:38.277Z,7.03
2022-08-14T17:30:58.935Z,7.35
2022-08-14T17:36:24.222Z,7.07
2022-08-14T17:41:36.269Z,6.95
2022-08-14T17:46:50.293Z,7.70
2022-08-14T17:52:07.665Z,8.25
2022-08-14T17:57:24.376Z,8.00
2022-08-14T18:02:31.091Z,8.23
2022-08-14T18:07:59.799Z,7.70
2022-08-14T18:12:57.008Z,8.05
2022-08-14T18:18:00.395Z,8.48
2022-08-14T18:23:04.030Z,8.13
2022-08-14T18:28:18.433Z,8.52
2022-08-14T18:33:35.638Z,8.18
2022-08-14T18:38:55.440Z,8.52
2022-08-14T18:44:02.191Z,8.32
2022-08-14T18:49:15.183Z,8.57
2022-08-14T18:54:30.023Z,8.65
2022-08-14T18:59:42.310Z,8.90
2022-08-14T19:04:44.838Z,8.98
2022-08-14T19:10:07.918Z,11.32
2022-08-14T19:15:10.874Z,8.80
2022-08-14T19:20:15.662Z,9.20
2022-08-14T19:25:54.982Z,9.07
2022-08-14T19:31:42.038Z,9.65
2022-08-14T19:37:05.950Z,9.23
2022-08-14T19:42:14.284Z,9.48
2022-08-14T19:47:40.963Z,9.43
2022-08-14T19:52:43.207Z,9.00
2022-08-14T19:57:58.874Z,10.13
2022-08-14T20:03:11.824Z,9.80
2022-08-14T20:11:00.152Z,9.43
2022-08-14T20:13:39.338Z,9.35
2022-08-14T20:18:51.623Z,10.13
2022-08-14T20:24:31.535Z,9.85
2022-08-14T20:29:38.087Z,8.90
2022-08-14T20:34:51.139Z,9.77
2022-08-14T20:39:54.419Z,9.57
2022-08-14T20:45:19.776Z,9.52
2022-08-14T20:50:28.279Z,8.93
2022-08-14T20:55:35.152Z,9.18
2022-08-14T21:00:52.219Z,8.80
2022-08-14T21:06:19.379Z,9.48
2022-08-14T21:11:23.871Z,9.20
2022-08-14T21:16:33.478Z,9.50
2022-08-14T21:21:42.416Z,9.40
2022-08-14T21:26:52.823Z,9.07
2022-08-14T21:32:20.643Z,9.85
2022-08-14T21:37:23.550Z,9.15
2022-08-14T21:42:27.932Z,9.73
2022-08-14T21:47:29.948Z,10.02
2022-08-14T21:52:49.327Z,9.55
2022-08-14T21:58:44.863Z,10.02
2022-08-14T22:03:19.548Z,10.55
2022-08-14T22:08:27.335Z,9.60
2022-08-14T22:13:32.353Z,10.40
2022-08-14T22:18:34.534Z,9.77
2022-08-14T22:23:38.643Z,9.93
2022-08-14T22:28:44.921Z,10.07
2022-08-14T22:33:50.012Z,10.27
2022-08-14T22:39:00.026Z,9.48
2022-08-14T22:44:10.885Z,9.95
2022-08-14T22:49:16.274Z,9.85
2022-08-14T22:54:52.803Z,10.48
2022-08-14T22:59:55.381Z,9.93
2022-08-14T23:04:58.038Z,10.20
2022-08-14T23:10:32.259Z,10.15
2022-08-14T23:15:24.630Z,10.32
2022-08-14T23:20:33.673Z,10.10
2022-08-14T23:25:58.267Z,10.13
2022-08-14T23:31:05.550Z,10.18
2022-08-14T23:36:28.537Z,10.57
2022-08-14T23:41:46.860Z,10.45
2022-08-14T23:46:56.893Z,9.88
2022-08-14T23:52:50.124Z,10.32
2022-08-14T23:57:24.047Z,10.63
